Time;durP1;ratioP1;P1;durP2;ratioP2;P2;SDS_P1;SDS_P2;PMS_P1;PMS_P2;Temp;Humidity;BMP_temperature;BMP_pressure;BME280_temperature;BME280_humidity;BME280_pressure;Samples;Min_cycle;Max_cycle;Signal;HPM_P1;HPM_P2
2021/12/20 00:01:52;;;;;;;12.60;8.30;;;;;;;-0.08;100.00;98770.77;102240;1310;60497;-74
2021/12/20 00:04:20;;;;;;;14.90;8.30;;;;;;;-0.07;100.00;98766.70;102232;1316;62020;-73
2021/12/20 00:06:46;;;;;;;10.00;7.40;;;;;;;-0.05;100.00;98770.50;102254;1316;75678;-72
2021/12/20 00:09:13;;;;;;;13.20;9.40;;;;;;;-0.05;100.00;98769.09;102300;1314;60609;-72
2021/12/20 00:11:39;;;;;;;13.80;9.00;;;;;;;-0.07;100.00;98774.02;102287;1310;74463;-74
2021/12/20 00:14:06;;;;;;;14.70;9.50;;;;;;;-0.09;100.00;98777.08;102339;1310;60520;-72
2021/12/20 00:16:33;;;;;;;15.10;9.80;;;;;;;-0.12;100.00;98776.61;102731;1310;61146;-72
2021/12/20 00:18:59;;;;;;;16.80;11.00;;;;;;;-0.15;100.00;98773.05;102833;1310;75523;-73
2021/12/20 00:21:26;;;;;;;22.30;15.40;;;;;;;-0.18;100.00;98777.31;102917;1310;70467;-73
2021/12/20 00:23:52;;;;;;;26.50;19.60;;;;;;;-0.21;100.00;98779.32;102386;1310;74374;-73
2021/12/20 00:26:19;;;;;;;31.90;18.40;;;;;;;-0.22;100.00;98773.05;102315;1316;60534;-73
2021/12/20 00:28:45;;;;;;;23.60;14.60;;;;;;;-0.23;100.00;98777.98;102405;1310;61881;-74
2021/12/20 00:31:12;;;;;;;17.20;11.30;;;;;;;-0.23;100.00;98787.76;102436;1310;74365;-73
2021/12/20 00:33:39;;;;;;;29.70;15.70;;;;;;;-0.21;100.00;98791.02;102265;1310;69540;-74
2021/12/20 00:36:07;;;;;;;25.10;13.10;;;;;;;-0.18;100.00;98791.27;102282;1313;74808;-73
2021/12/20 00:41:23;;;;;;;17.90;11.50;;;;;;;-0.11;100.00;98785.86;102223;1311;60885;-74
2021/12/20 00:43:50;;;;;;;19.80;12.00;;;;;;;-0.08;100.00;98792.77;102659;1310;76180;-74
2021/12/20 00:46:17;;;;;;;16.80;9.60;;;;;;;-0.05;100.00;98798.09;102290;1313;60395;-73
2021/12/20 00:48:43;;;;;;;16.30;10.70;;;;;;;-0.01;100.00;98802.35;102213;1310;74705;-74
2021/12/20 00:51:10;;;;;;;16.30;10.50;;;;;;;0.03;100.00;98802.24;102269;1316;60511;-73
2021/12/20 00:53:37;;;;;;;18.90;11.90;;;;;;;0.05;100.00;98798.52;102288;1310;61232;-73
2021/12/20 00:56:03;;;;;;;19.10;12.50;;;;;;;0.07;100.00;98799.16;102265;1311;60525;-75
2021/12/20 00:58:30;;;;;;;17.20;11.10;;;;;;;0.10;100.00;98799.95;102266;1310;69082;-73
2021/12/20 01:00:58;;;;;;;18.60;10.80;;;;;;;0.12;100.00;98792.22;102259;1310;73367;-74
2021/12/20 01:03:26;;;;;;;18.40;11.50;;;;;;;0.13;100.00;98783.98;102349;1316;60974;-73
2021/12/20 01:05:53;;;;;;;18.60;11.90;;;;;;;0.14;100.00;98788.67;102345;1310;62088;-73
2021/12/20 01:08:21;;;;;;;20.10;12.70;;;;;;;0.15;100.00;98788.27;102287;1310;74521;-73
2021/12/20 01:10:52;;;;;;;19.40;13.00;;;;;;;0.16;100.00;98783.02;102302;1317;69453;-73
2021/12/20 01:13:22;;;;;;;18.60;12.50;;;;;;;0.18;100.00;98782.05;102236;1313;73178;-73
2021/12/20 01:15:52;;;;;;;;;;;;;;;0.19;100.00;98787.82;102491;1310;60513;-72
2021/12/20 01:18:20;;;;;;;20.30;13.60;;;;;;;0.19;100.00;98783.96;102290;1316;60902;-72
2021/12/20 01:20:47;;;;;;;24.50;16.70;;;;;;;0.21;100.00;98777.80;102324;1310;73735;-74
2021/12/20 01:23:14;;;;;;;18.70;14.00;;;;;;;0.23;100.00;98778.09;102418;1317;69345;-73
2021/12/20 01:25:41;;;;;;;20.20;14.40;;;;;;;0.25;100.00;98780.13;102389;1311;74418;-73
2021/12/20 01:28:09;;;;;;;18.00;12.90;;;;;;;0.27;100.00;98781.83;102257;1313;60529;-73
2021/12/20 01:30:38;;;;;;;17.80;11.60;;;;;;;0.29;100.00;98776.52;102374;1310;62205;-74
2021/12/20 01:33:08;;;;;;;21.30;11.80;;;;;;;0.31;100.00;98779.44;102335;1317;74367;-73
2021/12/20 01:35:36;;;;;;;15.10;10.10;;;;;;;0.31;100.00;98779.60;102297;1310;69803;-73
2021/12/20 01:38:03;;;;;;;13.40;9.50;;;;;;;0.33;100.00;98781.13;102144;1313;73426;-73
2021/12/20 01:40:31;;;;;;;14.20;9.80;;;;;;;0.35;100.00;98783.70;102329;1310;60437;-73
2021/12/20 01:42:58;;;;;;;12.60;8.90;;;;;;;0.37;100.00;98783.61;101919;1316;61012;-73
2021/12/20 01:45:28;;;;;;;13.20;8.60;;;;;;;0.40;100.00;98787.73;102397;1310;74581;-73
2021/12/20 01:48:17;;;;;;;14.90;9.20;;;;;;;0.42;100.00;98789.96;102498;1310;69562;-73
2021/12/20 01:53:15;;;;;;;9.90;7.30;;;;;;;0.48;100.00;98790.45;102674;1317;60478;-73
2021/12/20 01:55:42;;;;;;;11.10;8.40;;;;;;;0.50;100.00;98797.59;102685;1311;62325;-73
2021/12/20 01:58:09;;;;;;;8.00;6.80;;;;;;;0.52;100.00;98795.25;102762;1310;72468;-72
2021/12/20 02:00:37;;;;;;;9.40;6.80;;;;;;;0.54;100.00;98795.21;102870;1316;70282;-74
2021/12/20 02:03:03;;;;;;;13.10;8.10;;;;;;;0.53;100.00;98787.90;103486;1310;74731;-74
2021/12/20 02:08:21;;;;;;;8.60;7.00;;;;;;;0.55;100.00;98790.44;104278;1315;61795;-74
2021/12/20 02:10:50;;;;;;;9.60;6.60;;;;;;;0.56;100.00;98795.14;105111;1310;74608;-74
2021/12/20 02:13:17;;;;;;;9.70;6.60;;;;;;;0.55;100.00;98794.81;103949;1316;69702;-73
2021/12/20 02:15:44;;;;;;;10.70;6.90;;;;;;;0.56;100.00;98793.20;102388;1310;73275;-73
2021/12/20 02:18:11;;;;;;;11.10;7.20;;;;;;;0.58;100.00;98794.02;102353;1316;60672;-73
2021/12/20 02:20:38;;;;;;;9.60;7.10;;;;;;;0.58;100.00;98788.44;101935;1316;60557;-73
2021/12/20 02:23:06;;;;;;;11.10;6.40;;;;;;;0.58;100.00;98790.16;102440;1313;75622;-73
2021/12/20 02:25:34;;;;;;;7.80;6.20;;;;;;;0.57;100.00;98787.77;102350;1316;69470;-74
2021/12/20 02:28:09;;;;;;;8.10;6.90;;;;;;;0.56;100.00;98789.73;102403;1316;74251;-74
2021/12/20 02:30:48;;;;;;;9.20;6.20;;;;;;;0.58;100.00;98787.73;102320;1316;60524;-73
2021/12/20 02:38:47;;;;;;;9.50;7.00;;;;;;;0.58;100.00;98792.44;102343;1311;69722;-74
2021/12/20 02:41:16;;;;;;;9.30;7.30;;;;;;;0.60;100.00;98794.14;102055;1316;72185;-74
2021/12/20 02:43:54;;;;;;;6.20;5.20;;;;;;;0.60;100.00;98796.92;102459;1310;60763;-74
2021/12/20 02:49:24;;;;;;;9.70;5.70;;;;;;;0.57;100.00;98797.73;102285;1316;74765;-73
2021/12/20 02:51:53;;;;;;;7.10;4.50;;;;;;;0.57;100.00;98797.55;102358;1317;69444;-73
2021/12/20 02:54:21;;;;;;;8.00;5.60;;;;;;;0.55;100.00;98798.83;102439;1314;73385;-74
2021/12/20 02:56:49;;;;;;;8.50;5.60;;;;;;;0.55;100.00;98799.54;102410;1316;60529;-75
2021/12/20 02:59:17;;;;;;;5.60;4.50;;;;;;;0.53;100.00;98794.36;102434;1316;62006;-74
2021/12/20 03:01:51;;;;;;;9.00;5.60;;;;;;;0.51;100.00;98794.95;102387;1317;74581;-73
2021/12/20 03:04:17;;;;;;;6.30;4.40;;;;;;;0.50;100.00;98798.64;102461;1317;69494;-74
2021/12/20 03:06:52;;;;;;;6.10;4.60;;;;;;;0.50;100.00;98803.00;102310;1318;72444;-75
2021/12/20 03:09:27;;;;;;;6.50;5.10;;;;;;;0.50;100.00;98800.04;102412;1313;60632;-74
2021/12/20 03:11:57;;;;;;;6.10;3.70;;;;;;;0.51;100.00;98804.75;102366;1316;60494;-74
2021/12/20 03:14:28;;;;;;;;;;;;;;;0.49;100.00;98803.21;102360;1316;75413;-75
2021/12/20 03:16:56;;;;;;;8.00;4.30;;;;;;;0.48;100.00;98804.64;102279;1317;69631;-75
2021/12/20 03:19:24;;;;;;;7.70;4.30;;;;;;;0.46;100.00;98804.88;102393;1316;73601;-75
2021/12/20 03:21:51;;;;;;;8.00;4.90;;;;;;;0.46;100.00;98804.88;102332;1316;60492;-74
2021/12/20 03:24:18;;;;;;;8.20;5.30;;;;;;;0.46;100.00;98799.63;102345;1316;60546;-75
2021/12/20 03:26:45;;;;;;;6.60;4.50;;;;;;;0.46;100.00;98801.55;102266;1317;75573;-74
2021/12/20 03:29:12;;;;;;;7.50;4.80;;;;;;;0.46;100.00;98807.67;102290;1310;70372;-73
2021/12/20 03:31:39;;;;;;;7.50;4.90;;;;;;;0.45;100.00;98806.30;102278;1316;73965;-74
2021/12/20 03:34:06;;;;;;;7.90;4.50;;;;;;;0.43;100.00;98806.70;102224;1316;60629;-73
2021/12/20 03:36:34;;;;;;;7.80;4.80;;;;;;;0.42;100.00;98806.36;102282;1316;62000;-74
2021/12/20 03:39:04;;;;;;;7.30;4.60;;;;;;;0.41;100.00;98809.71;102266;1317;74702;-74
2021/12/20 03:41:31;;;;;;;;;;;;;;;0.39;100.00;98811.00;102376;1316;71530;-74
2021/12/20 03:43:58;;;;;;;5.50;4.70;;;;;;;0.37;100.00;98810.18;102362;1316;74346;-75
2021/12/20 03:46:25;;;;;;;6.70;4.70;;;;;;;0.36;100.00;98812.33;102423;1316;60551;-75
2021/12/20 03:48:52;;;;;;;8.10;5.70;;;;;;;0.34;100.00;98809.06;102376;1310;60610;-75
2021/12/20 03:51:18;;;;;;;8.70;5.70;;;;;;;0.32;100.00;98806.14;102437;1311;75559;-75
2021/12/20 03:53:45;;;;;;;7.60;5.40;;;;;;;0.32;100.00;98805.82;102433;1310;69431;-74
2021/12/20 03:56:12;;;;;;;8.80;5.70;;;;;;;0.30;100.00;98802.70;102266;1317;74382;-74
2021/12/20 03:58:39;;;;;;;10.10;6.40;;;;;;;0.29;100.00;98803.63;102275;1316;60504;-74
2021/12/20 04:01:12;;;;;;;9.20;7.20;;;;;;;0.28;100.00;98800.67;101852;1310;60575;-74
2021/12/20 04:03:40;;;;;;;9.00;7.70;;;;;;;0.27;100.00;98796.34;102294;1317;75652;-74
2021/12/20 04:06:11;;;;;;;8.70;7.70;;;;;;;0.25;100.00;98800.05;102314;1317;69512;-74
2021/12/20 04:08:39;;;;;;;11.60;7.80;;;;;;;0.25;100.00;98789.77;102444;1316;73674;-74
2021/12/20 04:11:07;;;;;;;10.50;8.10;;;;;;;0.24;100.00;98782.95;102290;1317;60508;-73
2021/12/20 04:13:33;;;;;;;8.90;7.50;;;;;;;0.24;100.00;98785.58;101862;1316;61252;-74
2021/12/20 04:16:01;;;;;;;10.40;7.80;;;;;;;0.23;100.00;98786.13;102305;1316;74635;-74
2021/12/20 04:18:29;;;;;;;10.00;7.30;;;;;;;0.23;100.00;98789.81;102121;1317;69592;-74
2021/12/20 04:20:56;;;;;;;9.20;7.00;;;;;;;0.22;100.00;98788.95;102215;1316;74533;-74
2021/12/20 04:23:23;;;;;;;9.90;7.70;;;;;;;0.23;100.00;98787.36;102254;1316;60529;-74
2021/12/20 04:25:49;;;;;;;11.00;7.10;;;;;;;0.24;100.00;98794.15;101935;1316;62284;-74
2021/12/20 04:28:16;;;;;;;11.30;7.40;;;;;;;0.23;100.00;98796.25;102342;1316;60380;-74
2021/12/20 04:30:43;;;;;;;9.20;6.60;;;;;;;0.24;100.00;98789.61;102271;1316;70473;-74
2021/12/20 04:33:09;;;;;;;7.80;5.80;;;;;;;0.23;100.00;98788.05;101884;1316;60547;-73
2021/12/20 04:35:36;;;;;;;10.00;6.40;;;;;;;0.23;100.00;98789.47;102244;1316;60625;-74
2021/12/20 04:38:03;;;;;;;9.90;7.40;;;;;;;0.24;100.00;98794.66;102246;1316;60489;-75
2021/12/20 04:40:30;;;;;;;9.40;7.40;;;;;;;0.23;100.00;98801.48;102157;1318;74428;-74
2021/12/20 04:42:59;;;;;;;8.80;7.80;;;;;;;0.22;100.00;98799.44;102257;1316;69809;-75
2021/12/20 04:45:28;;;;;;;9.10;6.80;;;;;;;0.21;100.00;98792.12;102299;1316;70456;-74
2021/12/20 04:47:56;;;;;;;9.50;7.00;;;;;;;0.21;100.00;98792.81;102371;1316;60555;-74
2021/12/20 04:50:23;;;;;;;10.00;6.90;;;;;;;0.20;100.00;98796.17;102231;1318;62407;-76
2021/12/20 04:52:51;;;;;;;8.60;5.40;;;;;;;0.19;100.00;98801.43;102311;1316;75468;-74
2021/12/20 04:55:18;;;;;;;10.20;6.40;;;;;;;0.18;100.00;98809.14;102314;1316;69003;-74
2021/12/20 04:57:47;;;;;;;8.00;5.90;;;;;;;0.20;100.00;98817.30;102237;1317;73200;-74
2021/12/20 05:00:19;;;;;;;7.30;5.80;;;;;;;0.21;100.00;98824.62;102301;1316;60469;-74
2021/12/20 05:02:46;;;;;;;7.60;6.80;;;;;;;0.22;100.00;98826.88;102005;1318;60901;-74
2021/12/20 05:05:13;;;;;;;8.30;6.50;;;;;;;0.21;100.00;98832.48;102289;1317;75568;-74
2021/12/20 05:07:40;;;;;;;9.80;6.80;;;;;;;0.21;100.00;98830.90;102298;1316;70223;-75
2021/12/20 05:10:11;;;;;;;8.80;6.90;;;;;;;0.22;100.00;98827.21;101851;1317;74483;-74
2021/12/20 05:12:39;;;;;;;10.10;7.20;;;;;;;0.23;100.00;98835.94;102291;1317;60483;-73
2021/12/20 05:15:07;;;;;;;9.90;6.00;;;;;;;0.23;100.00;98834.36;101602;1317;1002975;-74
2021/12/20 05:17:36;;;;;;;10.40;6.50;;;;;;;0.22;100.00;98831.40;102423;1316;75510;-74
2021/12/20 05:20:04;;;;;;;7.40;5.40;;;;;;;0.22;100.00;98832.11;101942;1317;69541;-74
2021/12/20 05:22:31;;;;;;;8.40;6.30;;;;;;;0.21;100.00;98836.66;102278;1316;74270;-75
2021/12/20 05:24:58;;;;;;;6.00;5.40;;;;;;;0.21;100.00;98836.66;102246;1311;60527;-74
2021/12/20 05:27:24;;;;;;;9.30;7.10;;;;;;;0.20;100.00;98836.53;102152;1318;60709;-75
2021/12/20 05:29:51;;;;;;;8.10;6.00;;;;;;;0.18;100.00;98839.02;102284;1316;74515;-74
2021/12/20 05:32:18;;;;;;;11.90;8.20;;;;;;;0.17;100.00;98842.39;102341;1313;70511;-74
2021/12/20 05:34:44;;;;;;;9.20;6.90;;;;;;;0.16;100.00;98843.98;102362;1310;74390;-73
2021/12/20 05:37:13;;;;;;;8.10;7.30;;;;;;;0.14;100.00;98842.64;102391;1310;60843;-75
2021/12/20 05:39:41;;;;;;;8.70;7.80;;;;;;;0.13;100.00;98841.10;102711;1317;60835;-75
2021/12/20 05:42:08;;;;;;;8.50;7.60;;;;;;;0.10;100.00;98841.16;103435;1310;74401;-74
2021/12/20 05:44:35;;;;;;;10.10;7.70;;;;;;;0.09;100.00;98841.20;103452;1319;69269;-73
2021/12/20 05:47:02;;;;;;;11.40;7.10;;;;;;;0.07;100.00;98849.80;102694;1310;72755;-74
2021/12/20 05:49:31;;;;;;;10.70;8.10;;;;;;;0.07;100.00;98854.20;102242;1317;61016;-74
2021/12/20 05:52:03;;;;;;;10.20;7.90;;;;;;;0.05;100.00;98857.02;102378;1316;60942;-74
2021/12/20 05:54:30;;;;;;;11.90;8.30;;;;;;;0.03;100.00;98851.83;101987;1317;74339;-74
2021/12/20 05:56:57;;;;;;;13.30;9.50;;;;;;;0.02;100.00;98848.91;102323;1316;69649;-76
2021/12/20 05:59:24;;;;;;;11.70;7.60;;;;;;;0.00;100.00;98847.56;102293;1310;73583;-74
2021/12/20 06:01:51;;;;;;;13.10;9.40;;;;;;;-0.01;100.00;98852.45;102316;1311;60504;-75
2021/12/20 06:04:17;;;;;;;11.50;9.50;;;;;;;-0.01;100.00;98855.44;101976;1313;61971;-73
2021/12/20 06:06:44;;;;;;;13.90;10.30;;;;;;;-0.01;100.00;98852.99;102344;1317;75877;-74
2021/12/20 06:09:10;;;;;;;14.20;10.50;;;;;;;-0.02;100.00;98848.82;102029;1317;60591;-75
2021/12/20 06:11:37;;;;;;;15.50;10.80;;;;;;;-0.02;100.00;98846.73;102453;1316;60577;-75
2021/12/20 06:14:04;;;;;;;13.30;10.10;;;;;;;-0.02;100.00;98843.24;102496;1313;60664;-75
2021/12/20 06:16:30;;;;;;;14.20;11.00;;;;;;;-0.03;100.00;98843.79;102020;1314;60680;-74
2021/12/20 06:18:57;;;;;;;13.10;10.50;;;;;;;-0.03;100.00;98839.08;102306;1310;60387;-76
2021/12/20 06:21:23;;;;;;;14.20;8.90;;;;;;;-0.04;100.00;98843.82;102295;1313;60660;-75
2021/12/20 06:23:50;;;;;;;15.30;11.10;;;;;;;-0.04;100.00;98852.73;102389;1317;73161;-75
2021/12/20 06:26:16;;;;;;;13.00;10.20;;;;;;;-0.03;100.00;98858.28;102230;1313;60561;-75
2021/12/20 06:28:43;;;;;;;13.80;10.40;;;;;;;-0.02;100.00;98866.46;102306;1317;60153;-75
2021/12/20 06:31:10;;;;;;;12.20;9.60;;;;;;;-0.01;100.00;98867.65;102303;1314;75616;-75
2021/12/20 06:33:36;;;;;;;15.40;11.80;;;;;;;0.02;100.00;98868.80;102287;1310;60433;-75
2021/12/20 06:36:03;;;;;;;12.10;10.60;;;;;;;0.04;100.00;98873.11;102266;1310;60491;-75
2021/12/20 06:38:31;;;;;;;11.00;9.80;;;;;;;0.05;100.00;98876.76;102267;1310;61144;-75
2021/12/20 06:40:58;;;;;;;20.70;13.20;;;;;;;0.05;100.00;98876.92;101941;1317;60453;-75
2021/12/20 06:43:25;;;;;;;30.10;20.70;;;;;;;0.07;100.00;98884.58;102307;1316;75530;-75
2021/12/20 06:45:52;;;;;;;25.20;17.60;;;;;;;0.09;100.00;98885.41;102110;1314;70466;-75
2021/12/20 06:48:18;;;;;;;13.80;11.60;;;;;;;0.10;100.00;98886.93;102378;1310;72712;-75
2021/12/20 06:50:45;;;;;;;17.50;12.80;;;;;;;0.11;100.00;98893.02;102387;1310;60416;-75
2021/12/20 06:53:11;;;;;;;15.60;10.00;;;;;;;0.12;100.00;98895.60;102194;1316;60814;-75
2021/12/20 06:55:38;;;;;;;15.70;11.00;;;;;;;0.13;100.00;98895.94;102486;1317;75422;-75
2021/12/20 06:58:05;;;;;;;13.80;10.50;;;;;;;0.14;100.00;98900.98;102322;1310;69232;-74
2021/12/20 07:00:32;;;;;;;14.90;11.30;;;;;;;0.15;100.00;98897.11;102378;1311;74476;-74
2021/12/20 07:02:59;;;;;;;13.40;10.90;;;;;;;0.15;100.00;98900.79;102497;1310;60477;-74
2021/12/20 07:05:26;;;;;;;17.70;11.40;;;;;;;0.15;100.00;98899.54;102524;1310;62225;-74
2021/12/20 07:07:53;;;;;;;15.20;11.60;;;;;;;0.17;100.00;98907.55;102310;1310;74596;-75
2021/12/20 07:10:20;;;;;;;16.60;11.70;;;;;;;0.18;100.00;98909.95;102327;1313;70428;-75
2021/12/20 07:12:47;;;;;;;20.90;12.20;;;;;;;0.19;100.00;98915.36;102300;1317;73274;-76
2021/12/20 07:15:14;;;;;;;20.50;12.90;;;;;;;0.19;100.00;98916.91;102328;1311;60544;-76
2021/12/20 07:17:43;;;;;;;17.90;13.00;;;;;;;0.20;100.00;98920.38;102390;1310;60984;-75
2021/12/20 07:20:10;;;;;;;16.50;11.10;;;;;;;0.23;100.00;98917.52;101901;1318;73978;-75
2021/12/20 07:22:37;;;;;;;14.60;10.60;;;;;;;0.26;100.00;98918.33;102367;1310;70187;-74
2021/12/20 07:25:05;;;;;;;16.60;11.30;;;;;;;0.27;100.00;98919.86;102341;1316;74794;-75
2021/12/20 07:27:32;;;;;;;16.40;12.10;;;;;;;0.29;100.00;98929.95;102409;1310;60504;-74
2021/12/20 07:29:59;;;;;;;18.30;12.20;;;;;;;0.31;100.00;98928.67;102454;1310;62036;-75
2021/12/20 07:32:25;;;;;;;15.50;11.30;;;;;;;0.31;100.00;98920.98;102230;1313;75209;-75
2021/12/20 07:34:52;;;;;;;12.40;11.10;;;;;;;0.32;100.00;98927.59;102401;1316;70606;-74
2021/12/20 07:37:18;;;;;;;17.00;11.90;;;;;;;0.33;100.00;98933.67;102287;1317;73265;-76
2021/12/20 07:39:45;;;;;;;15.80;12.20;;;;;;;0.33;100.00;98932.27;102378;1310;60506;-74
2021/12/20 07:42:12;;;;;;;17.40;13.00;;;;;;;0.33;100.00;98933.86;102375;1316;60463;-75
2021/12/20 07:44:39;;;;;;;18.80;12.40;;;;;;;0.32;100.00;98937.89;102331;1313;73732;-76
2021/12/20 07:47:05;;;;;;;13.40;11.90;;;;;;;0.32;100.00;98937.73;102320;1318;70039;-75
2021/12/20 07:49:34;;;;;;;10.60;9.40;;;;;;;0.30;100.00;98943.38;102372;1316;74214;-73
2021/12/20 07:52:02;;;;;;;16.20;12.00;;;;;;;0.28;100.00;98940.61;102498;1313;60461;-75
2021/12/20 07:54:29;;;;;;;15.90;12.60;;;;;;;0.27;100.00;98945.90;102253;1310;142726;-75
2021/12/20 07:56:57;;;;;;;18.00;14.50;;;;;;;0.29;100.00;98944.10;102463;1316;75776;-75
2021/12/20 07:59:23;;;;;;;17.20;11.50;;;;;;;0.31;100.00;98942.10;102522;1317;69257;-75
2021/12/20 08:01:50;;;;;;;16.60;11.10;;;;;;;0.35;100.00;98950.40;102557;1311;73601;-76
2021/12/20 08:04:17;;;;;;;15.40;11.80;;;;;;;0.37;100.00;98949.10;102565;1317;60507;-75
2021/12/20 08:06:45;;;;;;;12.10;10.80;;;;;;;0.42;100.00;98955.63;102591;1316;61977;-76
2021/12/20 08:09:14;;;;;;;10.40;9.30;;;;;;;0.46;100.00;98954.30;102688;1310;72714;-74
2021/12/20 08:11:42;;;;;;;11.10;10.00;;;;;;;0.53;100.00;98949.58;102635;1316;69520;-75
2021/12/20 08:14:08;;;;;;;12.80;9.80;;;;;;;0.58;100.00;98945.95;102732;1317;72462;-76
2021/12/20 08:16:35;;;;;;;13.60;10.00;;;;;;;0.61;100.00;98949.36;102778;1311;59551;-74
2021/12/20 08:19:01;;;;;;;12.00;9.40;;;;;;;0.63;100.00;98949.80;102849;1310;60963;-74
2021/12/20 08:21:28;;;;;;;13.20;9.70;;;;;;;0.67;100.00;98950.76;102666;1310;74724;-75
2021/12/20 08:23:55;;;;;;;10.20;9.10;;;;;;;0.69;100.00;98950.36;103590;1317;69211;-74
2021/12/20 08:26:22;;;;;;;11.40;9.40;;;;;;;0.73;100.00;98953.05;104088;1310;73231;-74
2021/12/20 08:28:48;;;;;;;10.60;9.50;;;;;;;0.74;100.00;98957.56;103834;1310;60607;-74
2021/12/20 08:31:15;;;;;;;13.00;9.70;;;;;;;0.75;100.00;98965.06;104212;1310;61021;-76
2021/12/20 08:33:41;;;;;;;11.50;8.50;;;;;;;0.74;100.00;98971.38;103630;1310;1002503;-75
2021/12/20 08:36:12;;;;;;;10.70;8.70;;;;;;;0.75;100.00;98972.59;105217;1310;68913;-75
2021/12/20 08:38:40;;;;;;;11.10;8.80;;;;;;;0.73;100.00;98978.91;105077;1317;71415;-76
2021/12/20 08:41:08;;;;;;;11.90;8.80;;;;;;;0.73;100.00;98979.79;102221;1318;60568;-74
2021/12/20 08:43:34;;;;;;;11.40;10.20;;;;;;;0.74;100.00;98976.98;102432;1310;61007;-76
2021/12/20 08:46:02;;;;;;;12.20;8.70;;;;;;;0.73;100.00;98979.63;102398;1310;75714;-75
2021/12/20 08:48:33;;;;;;;11.30;9.30;;;;;;;0.70;100.00;98976.73;102363;1310;70469;-75
2021/12/20 08:51:01;;;;;;;11.30;10.00;;;;;;;0.68;100.00;98973.63;102432;1310;74225;-74
2021/12/20 08:53:28;;;;;;;10.90;9.90;;;;;;;0.69;100.00;98979.38;102393;1313;60533;-75
2021/12/20 08:55:55;;;;;;;11.70;9.70;;;;;;;0.70;100.00;98977.63;102333;1316;60925;-74
2021/12/20 08:58:24;;;;;;;11.20;9.70;;;;;;;0.69;100.00;98980.97;101936;1313;74600;-74
2021/12/20 09:00:52;;;;;;;11.30;9.60;;;;;;;0.70;100.00;98984.24;102404;1316;68812;-75
2021/12/20 09:03:18;;;;;;;12.80;9.70;;;;;;;0.71;100.00;98986.86;102150;1316;73734;-74
2021/12/20 09:05:46;;;;;;;11.00;9.90;;;;;;;0.71;100.00;98986.68;102417;1311;60494;-74
2021/12/20 09:08:16;;;;;;;11.90;9.40;;;;;;;0.70;100.00;98986.00;102309;1310;60470;-75
2021/12/20 09:10:44;;;;;;;11.70;9.10;;;;;;;0.71;100.00;98988.09;102337;1310;73859;-75
2021/12/20 09:13:11;;;;;;;11.30;9.10;;;;;;;0.73;100.00;98988.38;102302;1316;68082;-75
2021/12/20 09:15:38;;;;;;;10.70;9.00;;;;;;;0.75;100.00;98985.70;102309;1310;60511;-75
2021/12/20 09:18:06;;;;;;;10.10;8.80;;;;;;;0.76;100.00;98982.52;102344;1310;60606;-75
2021/12/20 09:20:34;;;;;;;10.10;9.10;;;;;;;0.79;100.00;98984.17;102306;1317;60945;-75
2021/12/20 09:23:05;;;;;;;14.60;11.00;;;;;;;0.83;100.00;98986.52;102273;1316;74682;-74
2021/12/20 09:25:36;;;;;;;14.30;10.20;;;;;;;0.82;100.00;98997.22;102322;1310;67533;-74
2021/12/20 09:28:08;;;;;;;14.70;10.00;;;;;;;0.81;100.00;99002.14;102418;1310;71982;-78
2021/12/20 09:30:36;;;;;;;21.40;12.60;;;;;;;0.79;100.00;99001.31;102392;1311;60529;-74
2021/12/20 09:33:04;;;;;;;14.40;10.80;;;;;;;0.77;100.00;99004.68;102356;1310;60966;-74
2021/12/20 09:35:32;;;;;;;13.30;11.20;;;;;;;0.77;100.00;98997.53;102480;1310;73397;-74
2021/12/20 09:38:00;;;;;;;10.70;9.50;;;;;;;0.77;100.00;98996.66;102270;1310;69594;-74
2021/12/20 09:40:37;;;;;;;13.50;10.90;;;;;;;0.76;100.00;98997.38;102284;1310;72402;-74
2021/12/20 09:43:08;;;;;;;12.20;10.90;;;;;;;0.74;100.00;99006.52;102298;1310;60545;-74
2021/12/20 09:45:36;;;;;;;10.40;9.10;;;;;;;0.73;100.00;99006.71;102340;1310;61307;-75
2021/12/20 09:48:03;;;;;;;13.10;10.00;;;;;;;0.73;100.00;99005.16;102217;1310;75616;-74
2021/12/20 09:50:29;;;;;;;13.50;10.30;;;;;;;0.73;100.00;99010.39;102246;1314;69586;-74
2021/12/20 09:52:57;;;;;;;11.80;9.10;;;;;;;0.74;100.00;99010.55;102259;1316;74743;-74
2021/12/20 09:55:24;;;;;;;9.10;8.20;;;;;;;0.74;100.00;99016.50;101891;1317;61147;-74
2021/12/20 09:57:50;;;;;;;12.20;8.60;;;;;;;0.74;100.00;99009.50;102326;1310;62058;-75
2021/12/20 10:00:20;;;;;;;11.40;9.00;;;;;;;0.74;100.00;99007.21;102259;1310;60465;-74
2021/12/20 10:02:48;;;;;;;11.90;7.90;;;;;;;0.76;100.00;99006.46;102316;1310;70203;-74
2021/12/20 10:05:17;;;;;;;13.60;8.90;;;;;;;0.78;100.00;99007.64;102322;1311;73813;-74
2021/12/20 10:07:53;;;;;;;11.60;8.40;;;;;;;0.79;100.00;99007.09;102424;1310;60528;-74
2021/12/20 10:10:48;;;;;;;11.10;8.00;;;;;;;0.81;100.00;99005.98;102371;1310;61262;-74
2021/12/20 10:13:21;;;;;;;10.80;6.90;;;;;;;0.82;100.00;99008.23;102313;1317;74860;-73
2021/12/20 10:15:48;;;;;;;16.00;7.90;;;;;;;0.84;100.00;99009.76;102278;1313;70524;-73
2021/12/20 10:18:15;;;;;;;10.70;7.80;;;;;;;0.84;100.00;99008.52;102300;1310;73469;-73
2021/12/20 10:20:49;;;;;;;8.20;7.40;;;;;;;0.87;100.00;99014.36;102303;1313;60599;-75
2021/12/20 10:23:21;;;;;;;11.10;8.10;;;;;;;0.90;100.00;99009.41;101879;1317;60619;-73
2021/12/20 10:26:20;;;;;;;11.20;7.90;;;;;;;0.92;100.00;99011.81;102056;1317;75463;-74
2021/12/20 10:28:52;;;;;;;11.90;9.90;;;;;;;0.92;100.00;99015.12;101813;1319;69950;-74
2021/12/20 10:31:25;;;;;;;14.90;10.70;;;;;;;0.96;100.00;99012.40;101616;1319;73386;-74
2021/12/20 10:33:53;;;;;;;11.20;9.50;;;;;;;1.00;100.00;99007.56;101394;1320;60567;-74
2021/12/20 10:36:19;;;;;;;12.10;9.40;;;;;;;1.04;100.00;99008.84;101391;1322;62192;-75
2021/12/20 10:38:56;;;;;;;10.50;8.50;;;;;;;1.13;100.00;99004.91;101662;1319;75598;-76
2021/12/20 10:41:33;;;;;;;11.60;8.00;;;;;;;1.16;100.00;99008.34;101558;1320;70710;-76
2021/12/20 10:44:13;;;;;;;8.70;7.30;;;;;;;1.14;100.00;99005.59;101745;1319;74706;-75
2021/12/20 10:46:45;;;;;;;;;;;;;;;1.12;100.00;99006.36;101388;1322;61106;-76
2021/12/20 10:49:14;;;;;;;11.20;7.40;;;;;;;1.10;100.00;99003.41;101573;1319;60735;-75
2021/12/20 10:51:48;;;;;;;12.00;8.40;;;;;;;1.13;100.00;99006.69;101700;1319;75630;-74
2021/12/20 10:54:19;;;;;;;12.10;9.20;;;;;;;1.10;100.00;99011.13;101844;1319;68780;-74
2021/12/20 10:56:50;;;;;;;11.30;9.10;;;;;;;1.06;100.00;99011.77;101757;1320;72221;-73
2021/12/20 10:59:21;;;;;;;12.50;9.70;;;;;;;1.03;100.00;99010.64;102075;1318;60483;-75
2021/12/20 11:04:25;;;;;;;12.70;10.20;;;;;;;0.92;100.00;99012.67;102383;1319;75596;-76
2021/12/20 11:09:42;;;;;;;16.90;12.00;;;;;;;0.86;100.00;99019.30;103245;1313;74273;-74
2021/12/20 11:12:31;;;;;;;11.80;10.50;;;;;;;0.84;100.00;99021.64;102179;1314;60433;-75
2021/12/20 11:15:11;;;;;;;11.70;9.60;;;;;;;0.81;100.00;99024.69;102074;1316;60629;-75
2021/12/20 11:17:46;;;;;;;11.00;9.50;;;;;;;0.79;100.00;99024.92;102080;1316;74770;-74
2021/12/20 11:20:21;;;;;;;11.10;9.60;;;;;;;0.78;100.00;99025.11;102413;1313;69399;-74
2021/12/20 11:22:47;;;;;;;12.30;10.70;;;;;;;0.78;100.00;99024.77;102369;1313;73211;-74
2021/12/20 11:25:15;;;;;;;13.80;11.30;;;;;;;0.79;100.00;99032.10;102310;1310;60503;-75
2021/12/20 11:27:51;;;;;;;12.20;9.30;;;;;;;0.79;100.00;99034.88;102400;1313;60606;-74
2021/12/20 11:30:21;;;;;;;12.00;8.90;;;;;;;0.79;100.00;99032.45;102284;1310;74888;-77
2021/12/20 11:32:48;;;;;;;10.20;8.80;;;;;;;0.80;100.00;99033.84;102294;1313;70447;-75
2021/12/20 11:35:17;;;;;;;13.40;11.10;;;;;;;0.81;100.00;99031.69;102274;1314;72686;-75
2021/12/20 11:37:44;;;;;;;11.20;10.10;;;;;;;0.81;100.00;99031.70;102316;1313;60880;-75
2021/12/20 11:40:17;;;;;;;9.70;8.70;;;;;;;0.81;100.00;99036.23;102330;1314;60462;-74
2021/12/20 11:42:44;;;;;;;11.10;9.70;;;;;;;0.78;100.00;99034.39;102418;1316;75382;-76
2021/12/20 11:45:16;;;;;;;12.90;11.40;;;;;;;0.76;100.00;99037.08;102282;1310;69260;-75